Decoded Metar for KIXA ( in ) (IATA:) | Meteo·Mobile Aviation Weather
aviador You're here:

KIXA Decoded Metar

in
Report Time2019-04-24 23:20:00
UTC Time2019-04-24 23:48:40
Flight Rules vfr VFR
WindCalm
Visibility9999 m
Phenomena:N/A
Clouds:N/A
Expected CloudBase > 1,600 ft AGL from Temp-Dew spread
CeilingNone
Temp23°C
Dew Point19°C (78% RH)
QNH1011 hPa
Raw Report
METAR KIXA 242320Z AUTO 00000KT 10SM CLR 23/19 A2985 RMK AO2=

Extra information for KIXA:More info

Social comments